sensor_id;sensor_type;location;lat;lon;timestamp;P1;durP1;ratioP1;P2;durP2;ratioP2
68140;SDS011;54941;52.220;104.306;2023-07-09T00:02:10;15.05;;;13.35;;
68140;SDS011;54941;52.220;104.306;2023-07-09T00:04:37;16.60;;;14.07;;
68140;SDS011;54941;52.220;104.306;2023-07-09T00:07:05;16.52;;;14.32;;
68140;SDS011;54941;52.220;104.306;2023-07-09T00:09:37;19.95;;;14.15;;
68140;SDS011;54941;52.220;104.306;2023-07-09T00:12:04;19.63;;;15.52;;
68140;SDS011;54941;52.220;104.306;2023-07-09T00:14:33;19.70;;;15.70;;
68140;SDS011;54941;52.220;104.306;2023-07-09T00:16:59;16.60;;;14.70;;
68140;SDS011;54941;52.220;104.306;2023-07-09T00:19:25;19.73;;;16.13;;
68140;SDS011;54941;52.220;104.306;2023-07-09T00:21:51;18.27;;;15.50;;
68140;SDS011;54941;52.220;104.306;2023-07-09T00:24:19;20.40;;;15.95;;
68140;SDS011;54941;52.220;104.306;2023-07-09T00:26:46;17.77;;;15.73;;
68140;SDS011;54941;52.220;104.306;2023-07-09T00:29:12;18.35;;;15.57;;
68140;SDS011;54941;52.220;104.306;2023-07-09T00:31:39;20.13;;;15.55;;
68140;SDS011;54941;52.220;104.306;2023-07-09T00:34:05;18.92;;;16.17;;
68140;SDS011;54941;52.220;104.306;2023-07-09T00:36:32;17.52;;;15.23;;
68140;SDS011;54941;52.220;104.306;2023-07-09T00:38:58;18.73;;;15.25;;
68140;SDS011;54941;52.220;104.306;2023-07-09T00:41:26;20.42;;;16.73;;
68140;SDS011;54941;52.220;104.306;2023-07-09T00:44:13;18.88;;;14.77;;
68140;SDS011;54941;52.220;104.306;2023-07-09T00:47:12;17.42;;;14.77;;
68140;SDS011;54941;52.220;104.306;2023-07-09T00:49:49;18.52;;;15.15;;
68140;SDS011;54941;52.220;104.306;2023-07-09T00:52:26;21.48;;;15.73;;
68140;SDS011;54941;52.220;104.306;2023-07-09T00:54:57;20.73;;;14.63;;
68140;SDS011;54941;52.220;104.306;2023-07-09T00:57:29;18.98;;;15.27;;
68140;SDS011;54941;52.220;104.306;2023-07-09T00:59:56;18.20;;;14.90;;
68140;SDS011;54941;52.220;104.306;2023-07-09T01:02:31;22.45;;;15.05;;
68140;SDS011;54941;52.220;104.306;2023-07-09T01:04:57;19.17;;;14.10;;
68140;SDS011;54941;52.220;104.306;2023-07-09T01:07:27;15.52;;;13.15;;
68140;SDS011;54941;52.220;104.306;2023-07-09T01:09:53;15.85;;;13.45;;
68140;SDS011;54941;52.220;104.306;2023-07-09T01:12:20;15.45;;;12.68;;
68140;SDS011;54941;52.220;104.306;2023-07-09T01:14:49;17.45;;;13.55;;
68140;SDS011;54941;52.220;104.306;2023-07-09T01:17:20;15.75;;;12.68;;
68140;SDS011;54941;52.220;104.306;2023-07-09T01:19:48;14.77;;;12.60;;
68140;SDS011;54941;52.220;104.306;2023-07-09T01:22:18;12.88;;;11.35;;
68140;SDS011;54941;52.220;104.306;2023-07-09T01:24:54;11.18;;;10.07;;
68140;SDS011;54941;52.220;104.306;2023-07-09T01:27:22;12.60;;;10.68;;
68140;SDS011;54941;52.220;104.306;2023-07-09T01:29:50;11.85;;;10.50;;
68140;SDS011;54941;52.220;104.306;2023-07-09T01:32:16;13.05;;;11.63;;
68140;SDS011;54941;52.220;104.306;2023-07-09T01:34:44;12.27;;;9.55;;
68140;SDS011;54941;52.220;104.306;2023-07-09T01:37:12;11.82;;;10.48;;
68140;SDS011;54941;52.220;104.306;2023-07-09T01:39:40;12.02;;;10.40;;
68140;SDS011;54941;52.220;104.306;2023-07-09T01:42:07;11.50;;;9.82;;
68140;SDS011;54941;52.220;104.306;2023-07-09T01:44:34;11.48;;;10.02;;
68140;SDS011;54941;52.220;104.306;2023-07-09T01:47:00;11.88;;;10.00;;
68140;SDS011;54941;52.220;104.306;2023-07-09T01:49:27;13.07;;;10.05;;
68140;SDS011;54941;52.220;104.306;2023-07-09T01:51:54;13.10;;;10.27;;
68140;SDS011;54941;52.220;104.306;2023-07-09T01:54:20;12.55;;;10.48;;
68140;SDS011;54941;52.220;104.306;2023-07-09T01:56:48;14.38;;;11.02;;
68140;SDS011;54941;52.220;104.306;2023-07-09T01:59:14;12.18;;;10.13;;
68140;SDS011;54941;52.220;104.306;2023-07-09T02:01:40;12.60;;;10.25;;
68140;SDS011;54941;52.220;104.306;2023-07-09T02:04:07;12.57;;;10.20;;
68140;SDS011;54941;52.220;104.306;2023-07-09T02:06:33;12.80;;;10.68;;
68140;SDS011;54941;52.220;104.306;2023-07-09T02:08:59;13.52;;;10.20;;
68140;SDS011;54941;52.220;104.306;2023-07-09T02:11:25;13.18;;;9.88;;
68140;SDS011;54941;52.220;104.306;2023-07-09T02:13:53;13.63;;;10.05;;
68140;SDS011;54941;52.220;104.306;2023-07-09T02:16:23;11.63;;;9.48;;
68140;SDS011;54941;52.220;104.306;2023-07-09T02:18:49;12.63;;;9.70;;
68140;SDS011;54941;52.220;104.306;2023-07-09T02:21:21;11.88;;;9.18;;
68140;SDS011;54941;52.220;104.306;2023-07-09T02:23:48;12.85;;;9.40;;
68140;SDS011;54941;52.220;104.306;2023-07-09T02:26:14;12.38;;;9.38;;
68140;SDS011;54941;52.220;104.306;2023-07-09T02:28:40;13.10;;;10.15;;
68140;SDS011;54941;52.220;104.306;2023-07-09T02:31:08;18.40;;;10.70;;
68140;SDS011;54941;52.220;104.306;2023-07-09T02:33:34;13.07;;;9.68;;
68140;SDS011;54941;52.220;104.306;2023-07-09T02:36:02;12.52;;;9.63;;
68140;SDS011;54941;52.220;104.306;2023-07-09T02:38:29;13.13;;;9.98;;
68140;SDS011;54941;52.220;104.306;2023-07-09T02:40:55;13.30;;;9.65;;
68140;SDS011;54941;52.220;104.306;2023-07-09T02:43:21;11.85;;;8.90;;
68140;SDS011;54941;52.220;104.306;2023-07-09T02:45:48;11.73;;;9.27;;
68140;SDS011;54941;52.220;104.306;2023-07-09T02:48:15;12.70;;;9.63;;
68140;SDS011;54941;52.220;104.306;2023-07-09T02:50:42;13.73;;;9.93;;
68140;SDS011;54941;52.220;104.306;2023-07-09T02:53:08;12.60;;;9.60;;
68140;SDS011;54941;52.220;104.306;2023-07-09T02:55:34;13.35;;;9.82;;
68140;SDS011;54941;52.220;104.306;2023-07-09T02:58:01;13.18;;;10.00;;
68140;SDS011;54941;52.220;104.306;2023-07-09T03:00:27;13.30;;;10.02;;
68140;SDS011;54941;52.220;104.306;2023-07-09T03:02:53;12.90;;;10.18;;
68140;SDS011;54941;52.220;104.306;2023-07-09T03:05:21;12.85;;;9.63;;
68140;SDS011;54941;52.220;104.306;2023-07-09T03:07:47;11.68;;;9.93;;
68140;SDS011;54941;52.220;104.306;2023-07-09T03:10:14;15.15;;;11.95;;
68140;SDS011;54941;52.220;104.306;2023-07-09T03:12:40;15.23;;;12.00;;
68140;SDS011;54941;52.220;104.306;2023-07-09T03:15:07;16.65;;;12.25;;
68140;SDS011;54941;52.220;104.306;2023-07-09T03:17:33;14.65;;;11.88;;
68140;SDS011;54941;52.220;104.306;2023-07-09T03:19:59;13.35;;;11.35;;
68140;SDS011;54941;52.220;104.306;2023-07-09T03:22:27;14.30;;;10.95;;
68140;SDS011;54941;52.220;104.306;2023-07-09T03:24:53;12.50;;;10.60;;
68140;SDS011;54941;52.220;104.306;2023-07-09T03:27:20;12.65;;;10.38;;
68140;SDS011;54941;52.220;104.306;2023-07-09T03:29:46;13.38;;;10.82;;
68140;SDS011;54941;52.220;104.306;2023-07-09T03:32:13;14.32;;;10.40;;
68140;SDS011;54941;52.220;104.306;2023-07-09T03:34:39;13.77;;;11.27;;
68140;SDS011;54941;52.220;104.306;2023-07-09T03:37:05;14.40;;;11.23;;
68140;SDS011;54941;52.220;104.306;2023-07-09T03:39:33;24.38;;;11.55;;
68140;SDS011;54941;52.220;104.306;2023-07-09T03:41:59;14.25;;;11.85;;
68140;SDS011;54941;52.220;104.306;2023-07-09T03:44:26;14.40;;;10.75;;
68140;SDS011;54941;52.220;104.306;2023-07-09T03:46:52;16.40;;;11.95;;
68140;SDS011;54941;52.220;104.306;2023-07-09T03:49:18;13.65;;;11.07;;
68140;SDS011;54941;52.220;104.306;2023-07-09T03:51:44;15.75;;;10.93;;
68140;SDS011;54941;52.220;104.306;2023-07-09T03:54:11;15.02;;;11.45;;
68140;SDS011;54941;52.220;104.306;2023-07-09T03:56:38;16.63;;;11.85;;
68140;SDS011;54941;52.220;104.306;2023-07-09T03:59:05;15.77;;;11.75;;
68140;SDS011;54941;52.220;104.306;2023-07-09T04:01:31;15.25;;;11.27;;
68140;SDS011;54941;52.220;104.306;2023-07-09T04:03:57;15.98;;;11.38;;
68140;SDS011;54941;52.220;104.306;2023-07-09T04:06:26;17.23;;;12.30;;
68140;SDS011;54941;52.220;104.306;2023-07-09T04:08:52;15.55;;;12.05;;
68140;SDS011;54941;52.220;104.306;2023-07-09T04:11:18;15.65;;;11.60;;
68140;SDS011;54941;52.220;104.306;2023-07-09T04:13:48;15.48;;;11.05;;
68140;SDS011;54941;52.220;104.306;2023-07-09T04:16:15;18.13;;;12.52;;
68140;SDS011;54941;52.220;104.306;2023-07-09T04:18:41;20.70;;;12.13;;
68140;SDS011;54941;52.220;104.306;2023-07-09T04:21:07;18.48;;;13.80;;
68140;SDS011;54941;52.220;104.306;2023-07-09T04:23:34;15.68;;;11.65;;
68140;SDS011;54941;52.220;104.306;2023-07-09T04:26:00;16.80;;;12.57;;
68140;SDS011;54941;52.220;104.306;2023-07-09T04:28:26;17.20;;;12.70;;
68140;SDS011;54941;52.220;104.306;2023-07-09T04:30:57;16.60;;;13.05;;
68140;SDS011;54941;52.220;104.306;2023-07-09T04:33:23;19.35;;;13.13;;
68140;SDS011;54941;52.220;104.306;2023-07-09T04:35:49;20.40;;;13.25;;
68140;SDS011;54941;52.220;104.306;2023-07-09T04:38:17;20.25;;;13.20;;
68140;SDS011;54941;52.220;104.306;2023-07-09T04:40:44;15.40;;;11.63;;
68140;SDS011;54941;52.220;104.306;2023-07-09T04:43:14;17.08;;;11.57;;
68140;SDS011;54941;52.220;104.306;2023-07-09T04:45:40;16.30;;;11.80;;
68140;SDS011;54941;52.220;104.306;2023-07-09T04:48:08;15.10;;;10.88;;
68140;SDS011;54941;52.220;104.306;2023-07-09T04:50:34;17.70;;;11.48;;
68140;SDS011;54941;52.220;104.306;2023-07-09T04:53:00;16.90;;;12.00;;
68140;SDS011;54941;52.220;104.306;2023-07-09T04:55:27;15.93;;;11.93;;
68140;SDS011;54941;52.220;104.306;2023-07-09T04:57:54;15.07;;;11.00;;
68140;SDS011;54941;52.220;104.306;2023-07-09T05:00:21;16.10;;;11.73;;
68140;SDS011;54941;52.220;104.306;2023-07-09T05:02:47;16.00;;;11.30;;
68140;SDS011;54941;52.220;104.306;2023-07-09T05:05:15;16.13;;;10.93;;
68140;SDS011;54941;52.220;104.306;2023-07-09T05:07:42;15.85;;;10.90;;
68140;SDS011;54941;52.220;104.306;2023-07-09T05:10:08;15.60;;;10.80;;
68140;SDS011;54941;52.220;104.306;2023-07-09T05:12:35;11.95;;;9.48;;
68140;SDS011;54941;52.220;104.306;2023-07-09T05:15:01;11.63;;;9.32;;
68140;SDS011;54941;52.220;104.306;2023-07-09T05:17:30;11.43;;;8.75;;
68140;SDS011;54941;52.220;104.306;2023-07-09T05:19:57;11.82;;;9.23;;
68140;SDS011;54941;52.220;104.306;2023-07-09T05:22:24;13.93;;;11.18;;
68140;SDS011;54941;52.220;104.306;2023-07-09T05:24:51;13.55;;;10.27;;
68140;SDS011;54941;52.220;104.306;2023-07-09T05:27:17;13.02;;;10.52;;
68140;SDS011;54941;52.220;104.306;2023-07-09T05:29:43;14.18;;;9.27;;
68140;SDS011;54941;52.220;104.306;2023-07-09T05:32:12;12.30;;;9.82;;
68140;SDS011;54941;52.220;104.306;2023-07-09T05:34:38;12.45;;;10.23;;
68140;SDS011;54941;52.220;104.306;2023-07-09T05:37:05;13.50;;;10.65;;
68140;SDS011;54941;52.220;104.306;2023-07-09T05:39:33;11.35;;;8.95;;
68140;SDS011;54941;52.220;104.306;2023-07-09T05:41:59;11.75;;;9.85;;
68140;SDS011;54941;52.220;104.306;2023-07-09T05:44:26;11.70;;;9.07;;
68140;SDS011;54941;52.220;104.306;2023-07-09T05:46:52;12.35;;;9.98;;
68140;SDS011;54941;52.220;104.306;2023-07-09T05:49:18;11.25;;;9.05;;
68140;SDS011;54941;52.220;104.306;2023-07-09T05:51:44;12.18;;;9.60;;
68140;SDS011;54941;52.220;104.306;2023-07-09T05:54:11;12.23;;;10.18;;
68140;SDS011;54941;52.220;104.306;2023-07-09T05:56:40;13.20;;;10.50;;
68140;SDS011;54941;52.220;104.306;2023-07-09T05:59:06;12.23;;;10.07;;
68140;SDS011;54941;52.220;104.306;2023-07-09T06:01:32;13.27;;;10.82;;
68140;SDS011;54941;52.220;104.306;2023-07-09T06:03:58;13.32;;;10.25;;
68140;SDS011;54941;52.220;104.306;2023-07-09T06:06:25;12.48;;;9.07;;
68140;SDS011;54941;52.220;104.306;2023-07-09T06:08:53;12.60;;;11.05;;
68140;SDS011;54941;52.220;104.306;2023-07-09T06:11:19;14.70;;;10.32;;
68140;SDS011;54941;52.220;104.306;2023-07-09T06:13:47;15.43;;;11.23;;
68140;SDS011;54941;52.220;104.306;2023-07-09T06:16:14;13.63;;;11.00;;
68140;SDS011;54941;52.220;104.306;2023-07-09T06:18:40;14.23;;;10.98;;
68140;SDS011;54941;52.220;104.306;2023-07-09T06:21:07;15.32;;;12.00;;
68140;SDS011;54941;52.220;104.306;2023-07-09T06:23:33;15.93;;;11.90;;
68140;SDS011;54941;52.220;104.306;2023-07-09T06:25:59;15.07;;;11.57;;
68140;SDS011;54941;52.220;104.306;2023-07-09T06:28:26;15.45;;;12.27;;
68140;SDS011;54941;52.220;104.306;2023-07-09T06:30:54;14.48;;;11.50;;
68140;SDS011;54941;52.220;104.306;2023-07-09T06:33:21;13.73;;;10.90;;
68140;SDS011;54941;52.220;104.306;2023-07-09T06:35:48;14.90;;;11.90;;
68140;SDS011;54941;52.220;104.306;2023-07-09T06:38:16;15.77;;;11.65;;
68140;SDS011;54941;52.220;104.306;2023-07-09T06:40:43;15.63;;;11.73;;
68140;SDS011;54941;52.220;104.306;2023-07-09T06:43:13;16.20;;;12.73;;
68140;SDS011;54941;52.220;104.306;2023-07-09T06:45:41;17.10;;;12.90;;
68140;SDS011;54941;52.220;104.306;2023-07-09T06:48:15;16.60;;;12.73;;
68140;SDS011;54941;52.220;104.306;2023-07-09T06:50:42;16.65;;;12.80;;
68140;SDS011;54941;52.220;104.306;2023-07-09T06:53:08;18.65;;;12.20;;
68140;SDS011;54941;52.220;104.306;2023-07-09T06:55:34;17.13;;;12.00;;
68140;SDS011;54941;52.220;104.306;2023-07-09T06:58:01;14.80;;;11.00;;
68140;SDS011;54941;52.220;104.306;2023-07-09T07:00:27;13.93;;;10.30;;
68140;SDS011;54941;52.220;104.306;2023-07-09T07:02:53;14.30;;;10.27;;
68140;SDS011;54941;52.220;104.306;2023-07-09T07:08:02;16.63;;;11.40;;
68140;SDS011;54941;52.220;104.306;2023-07-09T07:10:32;13.38;;;9.43;;
68140;SDS011;54941;52.220;104.306;2023-07-09T07:12:58;15.45;;;10.30;;
68140;SDS011;54941;52.220;104.306;2023-07-09T07:15:25;14.68;;;10.50;;
68140;SDS011;54941;52.220;104.306;2023-07-09T07:17:51;15.00;;;10.05;;
68140;SDS011;54941;52.220;104.306;2023-07-09T07:20:18;17.15;;;10.82;;
68140;SDS011;54941;52.220;104.306;2023-07-09T07:22:44;14.77;;;9.82;;
68140;SDS011;54941;52.220;104.306;2023-07-09T07:25:13;15.68;;;9.85;;
68140;SDS011;54941;52.220;104.306;2023-07-09T07:27:40;16.48;;;11.00;;
68140;SDS011;54941;52.220;104.306;2023-07-09T07:30:07;15.55;;;10.48;;
68140;SDS011;54941;52.220;104.306;2023-07-09T07:32:34;18.48;;;11.93;;
68140;SDS011;54941;52.220;104.306;2023-07-09T07:35:01;16.83;;;10.02;;
68140;SDS011;54941;52.220;104.306;2023-07-09T07:37:29;15.65;;;11.27;;
68140;SDS011;54941;52.220;104.306;2023-07-09T07:39:55;15.10;;;10.70;;
68140;SDS011;54941;52.220;104.306;2023-07-09T07:42:23;15.20;;;10.00;;
68140;SDS011;54941;52.220;104.306;2023-07-09T07:44:49;17.35;;;11.63;;
68140;SDS011;54941;52.220;104.306;2023-07-09T07:47:15;16.50;;;11.43;;
68140;SDS011;54941;52.220;104.306;2023-07-09T07:49:42;17.10;;;12.15;;
68140;SDS011;54941;52.220;104.306;2023-07-09T07:52:08;16.67;;;11.57;;
68140;SDS011;54941;52.220;104.306;2023-07-09T07:54:34;16.67;;;10.98;;
68140;SDS011;54941;52.220;104.306;2023-07-09T07:57:01;20.02;;;13.68;;
68140;SDS011;54941;52.220;104.306;2023-07-09T07:59:29;18.63;;;12.35;;
68140;SDS011;54941;52.220;104.306;2023-07-09T08:01:55;18.70;;;11.57;;
68140;SDS011;54941;52.220;104.306;2023-07-09T08:04:22;15.30;;;11.45;;
68140;SDS011;54941;52.220;104.306;2023-07-09T08:06:48;16.40;;;11.55;;
68140;SDS011;54941;52.220;104.306;2023-07-09T08:09:15;18.30;;;12.65;;
68140;SDS011;54941;52.220;104.306;2023-07-09T08:11:41;18.65;;;13.02;;
68140;SDS011;54941;52.220;104.306;2023-07-09T08:14:07;16.85;;;11.95;;
68140;SDS011;54941;52.220;104.306;2023-07-09T08:16:36;17.23;;;12.35;;
68140;SDS011;54941;52.220;104.306;2023-07-09T08:19:02;18.13;;;12.63;;
68140;SDS011;54941;52.220;104.306;2023-07-09T08:21:29;17.23;;;12.38;;
68140;SDS011;54941;52.220;104.306;2023-07-09T08:23:55;14.60;;;10.75;;
68140;SDS011;54941;52.220;104.306;2023-07-09T08:26:21;15.50;;;11.15;;
68140;SDS011;54941;52.220;104.306;2023-07-09T08:28:48;15.15;;;11.15;;
68140;SDS011;54941;52.220;104.306;2023-07-09T08:31:14;15.13;;;11.05;;
68140;SDS011;54941;52.220;104.306;2023-07-09T08:33:42;14.80;;;10.68;;
68140;SDS011;54941;52.220;104.306;2023-07-09T08:36:08;14.40;;;11.05;;
68140;SDS011;54941;52.220;104.306;2023-07-09T08:38:34;16.27;;;11.90;;
68140;SDS011;54941;52.220;104.306;2023-07-09T08:41:06;15.70;;;11.07;;
68140;SDS011;54941;52.220;104.306;2023-07-09T08:43:35;15.05;;;10.52;;
68140;SDS011;54941;52.220;104.306;2023-07-09T08:46:14;15.32;;;10.23;;
68140;SDS011;54941;52.220;104.306;2023-07-09T08:48:47;14.73;;;11.10;;
68140;SDS011;54941;52.220;104.306;2023-07-09T08:51:17;16.10;;;11.15;;
68140;SDS011;54941;52.220;104.306;2023-07-09T08:53:49;17.02;;;11.52;;
68140;SDS011;54941;52.220;104.306;2023-07-09T08:56:18;15.27;;;10.52;;
68140;SDS011;54941;52.220;104.306;2023-07-09T08:58:47;16.30;;;11.13;;
68140;SDS011;54941;52.220;104.306;2023-07-09T09:01:17;16.08;;;11.13;;
68140;SDS011;54941;52.220;104.306;2023-07-09T09:03:48;19.05;;;11.27;;
68140;SDS011;54941;52.220;104.306;2023-07-09T09:06:16;16.70;;;11.13;;
68140;SDS011;54941;52.220;104.306;2023-07-09T09:08:47;16.98;;;11.77;;
68140;SDS011;54941;52.220;104.306;2023-07-09T09:11:21;17.85;;;11.63;;
68140;SDS011;54941;52.220;104.306;2023-07-09T09:13:58;19.40;;;13.13;;
68140;SDS011;54941;52.220;104.306;2023-07-09T09:16:27;19.77;;;13.85;;
68140;SDS011;54941;52.220;104.306;2023-07-09T09:18:59;16.92;;;11.30;;
68140;SDS011;54941;52.220;104.306;2023-07-09T09:21:28;17.50;;;12.02;;
68140;SDS011;54941;52.220;104.306;2023-07-09T09:24:12;15.43;;;11.73;;
68140;SDS011;54941;52.220;104.306;2023-07-09T09:26:41;16.90;;;11.70;;
68140;SDS011;54941;52.220;104.306;2023-07-09T09:29:10;19.23;;;11.70;;
68140;SDS011;54941;52.220;104.306;2023-07-09T09:31:38;18.50;;;12.32;;
68140;SDS011;54941;52.220;104.306;2023-07-09T09:34:16;17.58;;;12.32;;
68140;SDS011;54941;52.220;104.306;2023-07-09T09:36:43;19.73;;;13.55;;
68140;SDS011;54941;52.220;104.306;2023-07-09T09:39:09;18.70;;;12.73;;
68140;SDS011;54941;52.220;104.306;2023-07-09T09:41:36;17.05;;;12.07;;
68140;SDS011;54941;52.220;104.306;2023-07-09T09:44:03;17.40;;;12.20;;
68140;SDS011;54941;52.220;104.306;2023-07-09T09:46:31;18.95;;;13.15;;
68140;SDS011;54941;52.220;104.306;2023-07-09T09:51:39;21.25;;;12.65;;
68140;SDS011;54941;52.220;104.306;2023-07-09T09:54:11;16.73;;;12.05;;
68140;SDS011;54941;52.220;104.306;2023-07-09T09:56:42;17.10;;;11.43;;
68140;SDS011;54941;52.220;104.306;2023-07-09T09:59:13;17.00;;;11.13;;
68140;SDS011;54941;52.220;104.306;2023-07-09T10:01:44;17.88;;;10.98;;
68140;SDS011;54941;52.220;104.306;2023-07-09T10:04:12;16.63;;;10.82;;
68140;SDS011;54941;52.220;104.306;2023-07-09T10:06:46;18.52;;;12.02;;
68140;SDS011;54941;52.220;104.306;2023-07-09T10:09:19;16.23;;;11.15;;
68140;SDS011;54941;52.220;104.306;2023-07-09T10:11:55;16.08;;;11.25;;
68140;SDS011;54941;52.220;104.306;2023-07-09T10:14:33;16.98;;;11.15;;
68140;SDS011;54941;52.220;104.306;2023-07-09T10:17:10;17.55;;;11.98;;
68140;SDS011;54941;52.220;104.306;2023-07-09T10:19:49;16.55;;;10.13;;
68140;SDS011;54941;52.220;104.306;2023-07-09T10:22:35;15.98;;;10.90;;
68140;SDS011;54941;52.220;104.306;2023-07-09T10:25:12;16.73;;;11.93;;
68140;SDS011;54941;52.220;104.306;2023-07-09T10:28:00;16.90;;;11.80;;
68140;SDS011;54941;52.220;104.306;2023-07-09T10:30:43;16.67;;;10.52;;
68140;SDS011;54941;52.220;104.306;2023-07-09T10:33:17;17.52;;;12.27;;
68140;SDS011;54941;52.220;104.306;2023-07-09T10:35:53;17.52;;;11.63;;
68140;SDS011;54941;52.220;104.306;2023-07-09T10:38:38;16.40;;;11.27;;
68140;SDS011;54941;52.220;104.306;2023-07-09T10:41:13;15.27;;;11.50;;
68140;SDS011;54941;52.220;104.306;2023-07-09T10:43:43;16.17;;;11.70;;
68140;SDS011;54941;52.220;104.306;2023-07-09T10:48:57;17.50;;;11.38;;
68140;SDS011;54941;52.220;104.306;2023-07-09T10:49:33;17.67;;;10.88;;
68140;SDS011;54941;52.220;104.306;2023-07-09T10:52:04;16.20;;;11.10;;
68140;SDS011;54941;52.220;104.306;2023-07-09T10:54:37;16.38;;;11.15;;
68140;SDS011;54941;52.220;104.306;2023-07-09T10:57:09;15.73;;;10.75;;
68140;SDS011;54941;52.220;104.306;2023-07-09T10:59:40;16.83;;;11.77;;
68140;SDS011;54941;52.220;104.306;2023-07-09T11:02:13;20.25;;;12.75;;
68140;SDS011;54941;52.220;104.306;2023-07-09T11:04:46;17.75;;;12.35;;
68140;SDS011;54941;52.220;104.306;2023-07-09T11:07:17;18.15;;;12.77;;
68140;SDS011;54941;52.220;104.306;2023-07-09T11:09:51;18.15;;;12.65;;
68140;SDS011;54941;52.220;104.306;2023-07-09T11:12:20;17.92;;;13.05;;
68140;SDS011;54941;52.220;104.306;2023-07-09T11:14:53;18.63;;;13.02;;
68140;SDS011;54941;52.220;104.306;2023-07-09T11:17:22;18.73;;;12.50;;
68140;SDS011;54941;52.220;104.306;2023-07-09T11:19:53;19.42;;;13.43;;
68140;SDS011;54941;52.220;104.306;2023-07-09T11:22:22;22.58;;;14.63;;
68140;SDS011;54941;52.220;104.306;2023-07-09T11:24:51;20.05;;;13.88;;
68140;SDS011;54941;52.220;104.306;2023-07-09T11:27:20;20.67;;;14.27;;
68140;SDS011;54941;52.220;104.306;2023-07-09T11:29:48;22.95;;;15.60;;
68140;SDS011;54941;52.220;104.306;2023-07-09T11:32:22;20.42;;;13.50;;
68140;SDS011;54941;52.220;104.306;2023-07-09T11:34:51;20.27;;;14.00;;
68140;SDS011;54941;52.220;104.306;2023-07-09T11:37:17;19.80;;;13.50;;
68140;SDS011;54941;52.220;104.306;2023-07-09T11:39:52;20.85;;;13.75;;
68140;SDS011;54941;52.220;104.306;2023-07-09T11:42:29;21.38;;;14.85;;
68140;SDS011;54941;52.220;104.306;2023-07-09T11:44:58;18.52;;;13.57;;
68140;SDS011;54941;52.220;104.306;2023-07-09T11:47:30;19.83;;;13.65;;
68140;SDS011;54941;52.220;104.306;2023-07-09T11:50:00;20.27;;;13.98;;
68140;SDS011;54941;52.220;104.306;2023-07-09T11:52:31;21.45;;;13.95;;
68140;SDS011;54941;52.220;104.306;2023-07-09T11:55:11;20.83;;;15.05;;
68140;SDS011;54941;52.220;104.306;2023-07-09T11:57:48;21.02;;;12.90;;
68140;SDS011;54941;52.220;104.306;2023-07-09T12:00:19;20.42;;;12.13;;
68140;SDS011;54941;52.220;104.306;2023-07-09T12:02:45;21.27;;;14.07;;
68140;SDS011;54941;52.220;104.306;2023-07-09T12:05:11;24.10;;;14.48;;
68140;SDS011;54941;52.220;104.306;2023-07-09T12:07:40;21.67;;;14.50;;
68140;SDS011;54941;52.220;104.306;2023-07-09T12:10:14;22.33;;;13.55;;
68140;SDS011;54941;52.220;104.306;2023-07-09T12:12:46;18.02;;;12.68;;
68140;SDS011;54941;52.220;104.306;2023-07-09T12:15:15;19.58;;;13.05;;
68140;SDS011;54941;52.220;104.306;2023-07-09T12:17:44;20.20;;;13.85;;
68140;SDS011;54941;52.220;104.306;2023-07-09T12:20:21;18.17;;;12.25;;
68140;SDS011;54941;52.220;104.306;2023-07-09T12:22:47;17.58;;;12.18;;
68140;SDS011;54941;52.220;104.306;2023-07-09T12:25:19;16.73;;;10.95;;
68140;SDS011;54941;52.220;104.306;2023-07-09T12:27:48;17.42;;;12.20;;
68140;SDS011;54941;52.220;104.306;2023-07-09T12:30:15;17.75;;;11.68;;
68140;SDS011;54941;52.220;104.306;2023-07-09T12:32:45;18.80;;;11.95;;
68140;SDS011;54941;52.220;104.306;2023-07-09T12:35:13;16.95;;;12.27;;
68140;SDS011;54941;52.220;104.306;2023-07-09T12:37:41;18.38;;;12.02;;
68140;SDS011;54941;52.220;104.306;2023-07-09T12:40:11;16.75;;;11.13;;
68140;SDS011;54941;52.220;104.306;2023-07-09T12:42:43;17.38;;;11.68;;
68140;SDS011;54941;52.220;104.306;2023-07-09T12:45:13;20.45;;;13.23;;
68140;SDS011;54941;52.220;104.306;2023-07-09T12:47:41;19.48;;;12.68;;
68140;SDS011;54941;52.220;104.306;2023-07-09T12:50:17;17.95;;;11.95;;
68140;SDS011;54941;52.220;104.306;2023-07-09T12:52:46;19.13;;;13.43;;
68140;SDS011;54941;52.220;104.306;2023-07-09T12:55:19;17.88;;;12.18;;
68140;SDS011;54941;52.220;104.306;2023-07-09T12:57:49;18.83;;;13.00;;
68140;SDS011;54941;52.220;104.306;2023-07-09T13:00:16;21.17;;;13.95;;
68140;SDS011;54941;52.220;104.306;2023-07-09T13:02:43;18.52;;;12.35;;
68140;SDS011;54941;52.220;104.306;2023-07-09T13:05:16;21.25;;;13.63;;
68140;SDS011;54941;52.220;104.306;2023-07-09T13:07:45;23.48;;;14.82;;
68140;SDS011;54941;52.220;104.306;2023-07-09T13:10:15;20.05;;;13.15;;
68140;SDS011;54941;52.220;104.306;2023-07-09T13:12:44;22.25;;;14.32;;
68140;SDS011;54941;52.220;104.306;2023-07-09T13:15:21;18.70;;;12.15;;
68140;SDS011;54941;52.220;104.306;2023-07-09T13:17:49;18.83;;;13.40;;
68140;SDS011;54941;52.220;104.306;2023-07-09T13:20:23;21.02;;;14.30;;
68140;SDS011;54941;52.220;104.306;2023-07-09T13:22:49;21.50;;;13.48;;
68140;SDS011;54941;52.220;104.306;2023-07-09T13:25:16;19.75;;;14.05;;
68140;SDS011;54941;52.220;104.306;2023-07-09T13:27:42;20.35;;;13.85;;
68140;SDS011;54941;52.220;104.306;2023-07-09T13:30:09;19.73;;;13.30;;
68140;SDS011;54941;52.220;104.306;2023-07-09T13:32:37;19.13;;;13.60;;
68140;SDS011;54941;52.220;104.306;2023-07-09T13:35:08;20.02;;;14.07;;
68140;SDS011;54941;52.220;104.306;2023-07-09T13:37:39;20.10;;;12.98;;
68140;SDS011;54941;52.220;104.306;2023-07-09T13:40:07;18.80;;;12.82;;
68140;SDS011;54941;52.220;104.306;2023-07-09T13:42:36;19.48;;;13.18;;
68140;SDS011;54941;52.220;104.306;2023-07-09T13:45:02;21.48;;;13.45;;
68140;SDS011;54941;52.220;104.306;2023-07-09T13:47:30;19.65;;;12.98;;
68140;SDS011;54941;52.220;104.306;2023-07-09T13:49:58;20.17;;;13.68;;
68140;SDS011;54941;52.220;104.306;2023-07-09T13:52:24;19.70;;;14.70;;
68140;SDS011;54941;52.220;104.306;2023-07-09T13:57:20;20.88;;;13.10;;
68140;SDS011;54941;52.220;104.306;2023-07-09T14:02:17;21.77;;;13.32;;
68140;SDS011;54941;52.220;104.306;2023-07-09T14:04:46;20.00;;;14.13;;
68140;SDS011;54941;52.220;104.306;2023-07-09T14:07:17;21.90;;;14.45;;
68140;SDS011;54941;52.220;104.306;2023-07-09T14:09:49;21.27;;;14.13;;
68140;SDS011;54941;52.220;104.306;2023-07-09T14:12:16;20.90;;;13.70;;
68140;SDS011;54941;52.220;104.306;2023-07-09T14:14:42;22.40;;;14.18;;
68140;SDS011;54941;52.220;104.306;2023-07-09T14:17:08;22.92;;;13.70;;
68140;SDS011;54941;52.220;104.306;2023-07-09T14:19:34;25.10;;;15.00;;